sensor_id;sensor_type;location;lat;lon;timestamp;pressure;altitude;pressure_sealevel;temperature;humidity
11692;BME280;33659;42.672;23.354;2022-07-05T00:00:04;94536.47;;;25.06;39.76
11692;BME280;33659;42.672;23.354;2022-07-05T00:02:31;94520.66;;;24.95;39.67
11692;BME280;33659;42.672;23.354;2022-07-05T00:04:58;94527.75;;;25.02;39.50
11692;BME280;33659;42.672;23.354;2022-07-05T00:07:25;94521.41;;;24.96;39.76
11692;BME280;33659;42.672;23.354;2022-07-05T00:09:54;94520.97;;;24.97;39.77
11692;BME280;33659;42.672;23.354;2022-07-05T00:12:25;94522.06;;;25.00;39.40
11692;BME280;33659;42.672;23.354;2022-07-05T00:14:53;94526.56;;;25.03;39.30
11692;BME280;33659;42.672;23.354;2022-07-05T00:17:20;94521.25;;;25.03;38.90
11692;BME280;33659;42.672;23.354;2022-07-05T00:19:46;94523.22;;;24.99;38.75
11692;BME280;33659;42.672;23.354;2022-07-05T00:22:13;94507.56;;;25.01;38.74
11692;BME280;33659;42.672;23.354;2022-07-05T00:24:40;94515.09;;;25.06;38.56
11692;BME280;33659;42.672;23.354;2022-07-05T00:27:07;94515.13;;;25.02;38.46
11692;BME280;33659;42.672;23.354;2022-07-05T00:29:35;94521.66;;;25.01;38.29
11692;BME280;33659;42.672;23.354;2022-07-05T00:32:02;94515.72;;;24.94;38.38
11692;BME280;33659;42.672;23.354;2022-07-05T00:34:28;94511.69;;;24.85;38.42
11692;BME280;33659;42.672;23.354;2022-07-05T00:36:55;94510.59;;;24.83;38.23
11692;BME280;33659;42.672;23.354;2022-07-05T00:39:23;94510.88;;;24.89;38.52
11692;BME280;33659;42.672;23.354;2022-07-05T00:41:51;94515.47;;;24.88;38.41
11692;BME280;33659;42.672;23.354;2022-07-05T00:44:28;94508.63;;;24.87;38.47
11692;BME280;33659;42.672;23.354;2022-07-05T00:46:57;94486.13;;;24.68;38.87
11692;BME280;33659;42.672;23.354;2022-07-05T00:49:24;94518.63;;;24.83;38.29
11692;BME280;33659;42.672;23.354;2022-07-05T00:51:51;94514.59;;;24.75;38.17
11692;BME280;33659;42.672;23.354;2022-07-05T00:54:17;94510.59;;;24.67;38.50
11692;BME280;33659;42.672;23.354;2022-07-05T00:56:45;94506.22;;;24.56;38.28
11692;BME280;33659;42.672;23.354;2022-07-05T00:59:11;94508.13;;;24.56;38.51
11692;BME280;33659;42.672;23.354;2022-07-05T01:01:38;94509.97;;;24.59;38.18
11692;BME280;33659;42.672;23.354;2022-07-05T01:04:06;94509.03;;;24.49;37.93
11692;BME280;33659;42.672;23.354;2022-07-05T01:06:33;94507.41;;;24.36;38.25
11692;BME280;33659;42.672;23.354;2022-07-05T01:09:00;94510.84;;;24.36;38.32
11692;BME280;33659;42.672;23.354;2022-07-05T01:11:27;94509.09;;;24.26;38.64
11692;BME280;33659;42.672;23.354;2022-07-05T01:13:54;94516.47;;;24.18;38.62
11692;BME280;33659;42.672;23.354;2022-07-05T01:16:21;94526.13;;;24.12;39.09
11692;BME280;33659;42.672;23.354;2022-07-05T01:18:48;94520.78;;;24.12;38.77
11692;BME280;33659;42.672;23.354;2022-07-05T01:21:17;94531.13;;;24.10;39.10
11692;BME280;33659;42.672;23.354;2022-07-05T01:23:46;94528.03;;;23.92;38.82
11692;BME280;33659;42.672;23.354;2022-07-05T01:26:13;94528.16;;;23.85;39.16
11692;BME280;33659;42.672;23.354;2022-07-05T01:28:40;94542.72;;;23.80;39.60
11692;BME280;33659;42.672;23.354;2022-07-05T01:31:07;94532.00;;;23.84;39.17
11692;BME280;33659;42.672;23.354;2022-07-05T01:33:34;94534.81;;;23.96;39.19
11692;BME280;33659;42.672;23.354;2022-07-05T01:36:00;94537.72;;;24.02;39.16
11692;BME280;33659;42.672;23.354;2022-07-05T01:38:27;94529.25;;;24.07;39.15
11692;BME280;33659;42.672;23.354;2022-07-05T01:40:55;94527.31;;;23.88;39.48
11692;BME280;33659;42.672;23.354;2022-07-05T01:43:23;94537.38;;;23.80;40.00
11692;BME280;33659;42.672;23.354;2022-07-05T01:45:50;94535.91;;;23.75;40.05
11692;BME280;33659;42.672;23.354;2022-07-05T01:48:19;94527.13;;;23.78;39.74
11692;BME280;33659;42.672;23.354;2022-07-05T01:50:48;94521.63;;;23.66;40.01
11692;BME280;33659;42.672;23.354;2022-07-05T01:53:18;94530.03;;;23.64;40.31
11692;BME280;33659;42.672;23.354;2022-07-05T01:55:45;94529.53;;;23.69;40.12
11692;BME280;33659;42.672;23.354;2022-07-05T01:58:14;94518.13;;;23.69;39.75
11692;BME280;33659;42.672;23.354;2022-07-05T02:00:45;94520.88;;;23.65;40.63
11692;BME280;33659;42.672;23.354;2022-07-05T02:03:12;94525.31;;;23.72;40.57
11692;BME280;33659;42.672;23.354;2022-07-05T02:05:39;94528.56;;;23.83;40.52
11692;BME280;33659;42.672;23.354;2022-07-05T02:08:06;94523.78;;;23.94;40.41
11692;BME280;33659;42.672;23.354;2022-07-05T02:10:34;94528.50;;;24.07;40.16
11692;BME280;33659;42.672;23.354;2022-07-05T02:13:01;94510.13;;;24.12;40.06
11692;BME280;33659;42.672;23.354;2022-07-05T02:15:31;94513.13;;;24.14;40.05
11692;BME280;33659;42.672;23.354;2022-07-05T02:17:58;94520.50;;;24.26;40.05
11692;BME280;33659;42.672;23.354;2022-07-05T02:20:25;94518.13;;;24.32;40.00
11692;BME280;33659;42.672;23.354;2022-07-05T02:22:52;94518.09;;;24.36;40.13
11692;BME280;33659;42.672;23.354;2022-07-05T02:25:19;94521.69;;;24.45;39.77
11692;BME280;33659;42.672;23.354;2022-07-05T02:27:46;94516.34;;;24.45;40.00
11692;BME280;33659;42.672;23.354;2022-07-05T02:30:13;94526.06;;;24.55;39.74
11692;BME280;33659;42.672;23.354;2022-07-05T02:32:41;94527.47;;;24.60;39.54
11692;BME280;33659;42.672;23.354;2022-07-05T02:35:09;94530.16;;;24.60;39.81
11692;BME280;33659;42.672;23.354;2022-07-05T02:37:37;94526.97;;;24.49;40.03
11692;BME280;33659;42.672;23.354;2022-07-05T02:40:05;94538.13;;;24.44;40.10
11692;BME280;33659;42.672;23.354;2022-07-05T02:42:32;94534.75;;;24.40;40.59
11692;BME280;33659;42.672;23.354;2022-07-05T02:44:59;94540.06;;;24.43;40.72
11692;BME280;33659;42.672;23.354;2022-07-05T02:47:29;94543.81;;;24.46;40.76
11692;BME280;33659;42.672;23.354;2022-07-05T02:49:57;94548.47;;;24.42;40.38
11692;BME280;33659;42.672;23.354;2022-07-05T02:52:24;94553.66;;;24.29;40.68
11692;BME280;33659;42.672;23.354;2022-07-05T02:54:50;94548.63;;;23.91;41.22
11692;BME280;33659;42.672;23.354;2022-07-05T02:57:17;94545.09;;;23.74;41.50
11692;BME280;33659;42.672;23.354;2022-07-05T02:59:44;94550.75;;;23.53;42.07
11692;BME280;33659;42.672;23.354;2022-07-05T03:02:11;94558.16;;;23.42;42.79
11692;BME280;33659;42.672;23.354;2022-07-05T03:04:37;94550.16;;;23.42;42.59
11692;BME280;33659;42.672;23.354;2022-07-05T03:07:05;94551.63;;;23.46;42.52
11692;BME280;33659;42.672;23.354;2022-07-05T03:09:32;94556.19;;;23.46;42.83
11692;BME280;33659;42.672;23.354;2022-07-05T03:11:59;94548.31;;;23.39;42.83
11692;BME280;33659;42.672;23.354;2022-07-05T03:14:26;94547.94;;;23.37;43.58
11692;BME280;33659;42.672;23.354;2022-07-05T03:16:52;94546.69;;;23.45;43.26
11692;BME280;33659;42.672;23.354;2022-07-05T03:19:19;94542.63;;;23.37;43.67
11692;BME280;33659;42.672;23.354;2022-07-05T03:21:46;94546.22;;;23.27;44.09
11692;BME280;33659;42.672;23.354;2022-07-05T03:24:14;94543.03;;;23.35;44.23
11692;BME280;33659;42.672;23.354;2022-07-05T03:26:41;94546.59;;;23.52;44.24
11692;BME280;33659;42.672;23.354;2022-07-05T03:29:08;94547.81;;;23.71;44.38
11692;BME280;33659;42.672;23.354;2022-07-05T03:31:34;94543.91;;;23.75;44.11
11692;BME280;33659;42.672;23.354;2022-07-05T03:34:01;94540.31;;;23.86;42.77
11692;BME280;33659;42.672;23.354;2022-07-05T03:36:28;94547.03;;;23.94;42.52
11692;BME280;33659;42.672;23.354;2022-07-05T03:38:55;94549.94;;;24.03;41.99
11692;BME280;33659;42.672;23.354;2022-07-05T03:41:23;94540.97;;;24.13;42.86
11692;BME280;33659;42.672;23.354;2022-07-05T03:43:50;94544.19;;;24.24;43.76
11692;BME280;33659;42.672;23.354;2022-07-05T03:46:16;94535.78;;;24.26;44.79
11692;BME280;33659;42.672;23.354;2022-07-05T03:48:43;94533.06;;;24.29;45.05
11692;BME280;33659;42.672;23.354;2022-07-05T03:51:10;94533.97;;;24.43;44.85
11692;BME280;33659;42.672;23.354;2022-07-05T03:53:36;94532.16;;;24.56;44.71
11692;BME280;33659;42.672;23.354;2022-07-05T03:56:03;94535.59;;;24.56;44.38
11692;BME280;33659;42.672;23.354;2022-07-05T03:58:31;94526.63;;;24.67;44.34
11692;BME280;33659;42.672;23.354;2022-07-05T04:00:58;94530.16;;;24.80;44.30
11692;BME280;33659;42.672;23.354;2022-07-05T04:03:25;94533.75;;;24.90;44.77
11692;BME280;33659;42.672;23.354;2022-07-05T04:05:51;94534.00;;;24.95;45.13
11692;BME280;33659;42.672;23.354;2022-07-05T04:08:18;94530.00;;;25.03;45.24
11692;BME280;33659;42.672;23.354;2022-07-05T04:10:45;94531.78;;;25.10;45.00
11692;BME280;33659;42.672;23.354;2022-07-05T04:13:12;94527.19;;;25.10;45.14
11692;BME280;33659;42.672;23.354;2022-07-05T04:15:40;94526.56;;;25.03;45.25
11692;BME280;33659;42.672;23.354;2022-07-05T04:18:07;94528.84;;;25.04;45.41
11692;BME280;33659;42.672;23.354;2022-07-05T04:20:33;94537.97;;;25.07;44.11
11692;BME280;33659;42.672;23.354;2022-07-05T04:23:00;94534.47;;;25.10;44.49
11692;BME280;33659;42.672;23.354;2022-07-05T04:25:27;94525.69;;;25.09;44.26
11692;BME280;33659;42.672;23.354;2022-07-05T04:27:54;94530.28;;;25.09;43.89
11692;BME280;33659;42.672;23.354;2022-07-05T04:30:23;94535.63;;;25.09;43.42
11692;BME280;33659;42.672;23.354;2022-07-05T04:32:51;94533.38;;;25.07;43.13
11692;BME280;33659;42.672;23.354;2022-07-05T04:35:18;94529.59;;;25.05;43.19
11692;BME280;33659;42.672;23.354;2022-07-05T04:37:45;94530.28;;;25.09;42.90
11692;BME280;33659;42.672;23.354;2022-07-05T04:40:14;94527.13;;;25.14;42.83
11692;BME280;33659;42.672;23.354;2022-07-05T04:42:41;94537.66;;;25.21;42.75
11692;BME280;33659;42.672;23.354;2022-07-05T04:45:08;94528.47;;;25.22;43.00
11692;BME280;33659;42.672;23.354;2022-07-05T04:47:35;94533.81;;;25.22;42.85
11692;BME280;33659;42.672;23.354;2022-07-05T04:50:04;94530.72;;;25.24;43.14
11692;BME280;33659;42.672;23.354;2022-07-05T04:52:31;94522.88;;;25.33;42.93
11692;BME280;33659;42.672;23.354;2022-07-05T04:54:58;94532.56;;;25.43;42.74
11692;BME280;33659;42.672;23.354;2022-07-05T04:57:24;94540.06;;;25.48;42.55
11692;BME280;33659;42.672;23.354;2022-07-05T04:59:51;94540.06;;;25.48;42.34
11692;BME280;33659;42.672;23.354;2022-07-05T05:02:18;94544.59;;;25.51;42.50
11692;BME280;33659;42.672;23.354;2022-07-05T05:04:44;94535.91;;;25.47;42.80
11692;BME280;33659;42.672;23.354;2022-07-05T05:07:12;94539.16;;;25.55;42.89
11692;BME280;33659;42.672;23.354;2022-07-05T05:09:39;94545.25;;;25.55;42.82
11692;BME280;33659;42.672;23.354;2022-07-05T05:12:06;94547.00;;;25.62;42.54
11692;BME280;33659;42.672;23.354;2022-07-05T05:14:33;94544.16;;;25.69;42.68
11692;BME280;33659;42.672;23.354;2022-07-05T05:17:00;94543.31;;;25.72;42.75
11692;BME280;33659;42.672;23.354;2022-07-05T05:19:27;94543.84;;;25.83;42.27
11692;BME280;33659;42.672;23.354;2022-07-05T05:21:53;94549.84;;;25.87;42.35
11692;BME280;33659;42.672;23.354;2022-07-05T05:24:21;94549.31;;;25.92;42.41
11692;BME280;33659;42.672;23.354;2022-07-05T05:26:48;94547.84;;;25.91;42.58
11692;BME280;33659;42.672;23.354;2022-07-05T05:29:16;94536.81;;;25.89;42.73
11692;BME280;33659;42.672;23.354;2022-07-05T05:31:42;94551.88;;;25.83;42.81
11692;BME280;33659;42.672;23.354;2022-07-05T05:34:09;94546.41;;;25.87;43.07
11692;BME280;33659;42.672;23.354;2022-07-05T05:36:36;94548.25;;;25.90;42.80
11692;BME280;33659;42.672;23.354;2022-07-05T05:39:03;94540.78;;;25.98;42.52
11692;BME280;33659;42.672;23.354;2022-07-05T05:41:31;94541.13;;;26.00;42.72
11692;BME280;33659;42.672;23.354;2022-07-05T05:43:57;94538.75;;;26.02;42.64
11692;BME280;33659;42.672;23.354;2022-07-05T05:46:24;94542.09;;;26.06;42.30
11692;BME280;33659;42.672;23.354;2022-07-05T05:48:51;94546.28;;;26.07;42.14
11692;BME280;33659;42.672;23.354;2022-07-05T05:51:17;94542.44;;;26.08;42.55
11692;BME280;33659;42.672;23.354;2022-07-05T05:53:44;94544.22;;;25.98;42.98
11692;BME280;33659;42.672;23.354;2022-07-05T05:56:11;94540.88;;;25.94;42.66
11692;BME280;33659;42.672;23.354;2022-07-05T05:58:39;94544.97;;;25.99;42.61
11692;BME280;33659;42.672;23.354;2022-07-05T06:01:06;94550.13;;;26.06;42.64
11692;BME280;33659;42.672;23.354;2022-07-05T06:03:33;94550.06;;;26.09;42.32
11692;BME280;33659;42.672;23.354;2022-07-05T06:05:59;94547.69;;;26.11;42.24
11692;BME280;33659;42.672;23.354;2022-07-05T06:08:26;94544.78;;;26.06;42.36
11692;BME280;33659;42.672;23.354;2022-07-05T06:10:53;94548.22;;;26.06;42.61
11692;BME280;33659;42.672;23.354;2022-07-05T06:13:20;94551.13;;;26.12;42.52
11692;BME280;33659;42.672;23.354;2022-07-05T06:15:48;94554.34;;;26.19;42.29
11692;BME280;33659;42.672;23.354;2022-07-05T06:18:14;94561.31;;;26.17;42.06
11692;BME280;33659;42.672;23.354;2022-07-05T06:20:41;94550.69;;;26.13;42.23
11692;BME280;33659;42.672;23.354;2022-07-05T06:23:08;94549.94;;;26.13;42.08
11692;BME280;33659;42.672;23.354;2022-07-05T06:25:34;94559.63;;;26.23;42.35
11692;BME280;33659;42.672;23.354;2022-07-05T06:28:04;94562.13;;;26.30;42.11
11692;BME280;33659;42.672;23.354;2022-07-05T06:30:32;94550.22;;;26.31;41.97
11692;BME280;33659;42.672;23.354;2022-07-05T06:33:01;94555.97;;;26.46;41.57
11692;BME280;33659;42.672;23.354;2022-07-05T06:35:28;94560.91;;;26.48;41.46
11692;BME280;33659;42.672;23.354;2022-07-05T06:37:58;94556.63;;;26.50;40.56
11692;BME280;33659;42.672;23.354;2022-07-05T06:40:27;94554.94;;;26.56;41.07
11692;BME280;33659;42.672;23.354;2022-07-05T06:42:55;94549.38;;;26.63;41.72
11692;BME280;33659;42.672;23.354;2022-07-05T06:45:22;94547.75;;;26.66;41.48
11692;BME280;33659;42.672;23.354;2022-07-05T06:47:56;94548.41;;;26.70;41.70
11692;BME280;33659;42.672;23.354;2022-07-05T06:50:25;94545.97;;;26.76;41.75
11692;BME280;33659;42.672;23.354;2022-07-05T06:52:52;94549.63;;;26.82;41.11
11692;BME280;33659;42.672;23.354;2022-07-05T06:55:19;94546.41;;;26.87;41.13
11692;BME280;33659;42.672;23.354;2022-07-05T06:57:45;94532.56;;;26.88;41.40
11692;BME280;33659;42.672;23.354;2022-07-05T07:00:13;94539.00;;;26.91;41.28
11692;BME280;33659;42.672;23.354;2022-07-05T07:02:40;94541.91;;;26.96;41.18
11692;BME280;33659;42.672;23.354;2022-07-05T07:05:08;94527.66;;;26.99;41.70
11692;BME280;33659;42.672;23.354;2022-07-05T07:07:36;94533.13;;;27.09;41.12
11692;BME280;33659;42.672;23.354;2022-07-05T07:10:20;94526.50;;;27.13;40.64
11692;BME280;33659;42.672;23.354;2022-07-05T07:12:47;94534.41;;;27.17;41.03
11692;BME280;33659;42.672;23.354;2022-07-05T07:15:14;94537.31;;;27.10;40.79
11692;BME280;33659;42.672;23.354;2022-07-05T07:17:40;94533.78;;;27.13;40.79
11692;BME280;33659;42.672;23.354;2022-07-05T07:20:08;94544.91;;;27.11;40.44
11692;BME280;33659;42.672;23.354;2022-07-05T07:22:36;94543.97;;;27.18;40.66
11692;BME280;33659;42.672;23.354;2022-07-05T07:25:04;94536.13;;;27.23;40.20
11692;BME280;33659;42.672;23.354;2022-07-05T07:27:40;94543.84;;;27.21;40.22
11692;BME280;33659;42.672;23.354;2022-07-05T07:30:09;94546.31;;;27.16;39.93
11692;BME280;33659;42.672;23.354;2022-07-05T07:32:35;94542.47;;;27.17;39.97
11692;BME280;33659;42.672;23.354;2022-07-05T07:35:02;94540.44;;;27.08;39.87
11692;BME280;33659;42.672;23.354;2022-07-05T07:37:29;94542.59;;;27.13;39.87
11692;BME280;33659;42.672;23.354;2022-07-05T07:39:57;94537.75;;;27.21;40.02
11692;BME280;33659;42.672;23.354;2022-07-05T07:42:26;94540.50;;;27.30;39.63
11692;BME280;33659;42.672;23.354;2022-07-05T07:44:53;94532.59;;;27.39;39.68
11692;BME280;33659;42.672;23.354;2022-07-05T07:47:20;94535.03;;;27.46;39.33
11692;BME280;33659;42.672;23.354;2022-07-05T07:49:47;94529.66;;;27.46;39.23
11692;BME280;33659;42.672;23.354;2022-07-05T07:52:14;94532.03;;;27.57;39.44
11692;BME280;33659;42.672;23.354;2022-07-05T07:54:41;94544.31;;;27.67;38.74
11692;BME280;33659;42.672;23.354;2022-07-05T07:57:09;94531.59;;;27.71;39.14
11692;BME280;33659;42.672;23.354;2022-07-05T07:59:35;94537.38;;;27.70;38.95
11692;BME280;33659;42.672;23.354;2022-07-05T08:02:02;94530.69;;;27.74;38.55
11692;BME280;33659;42.672;23.354;2022-07-05T08:04:29;94536.41;;;27.76;39.17
11692;BME280;33659;42.672;23.354;2022-07-05T08:06:56;94535.13;;;27.68;39.08
11692;BME280;33659;42.672;23.354;2022-07-05T08:09:22;94537.69;;;27.72;38.86
11692;BME280;33659;42.672;23.354;2022-07-05T08:11:49;94536.06;;;27.74;39.03
11692;BME280;33659;42.672;23.354;2022-07-05T08:14:18;94516.75;;;27.67;38.59
11692;BME280;33659;42.672;23.354;2022-07-05T08:16:47;94536.66;;;27.91;38.70
11692;BME280;33659;42.672;23.354;2022-07-05T08:19:14;94529.47;;;27.88;38.59
11692;BME280;33659;42.672;23.354;2022-07-05T08:21:59;94524.63;;;27.96;38.63
11692;BME280;33659;42.672;23.354;2022-07-05T08:24:27;94529.00;;;28.02;38.06
11692;BME280;33659;42.672;23.354;2022-07-05T08:26:54;94527.19;;;27.99;39.08
11692;BME280;33659;42.672;23.354;2022-07-05T08:29:22;94524.19;;;27.97;39.26
11692;BME280;33659;42.672;23.354;2022-07-05T08:31:50;94530.16;;;28.01;38.46
11692;BME280;33659;42.672;23.354;2022-07-05T08:34:17;94521.00;;;28.12;38.25
11692;BME280;33659;42.672;23.354;2022-07-05T08:36:44;94521.75;;;28.12;38.04
11692;BME280;33659;42.672;23.354;2022-07-05T08:39:12;94520.38;;;28.07;38.18
11692;BME280;33659;42.672;23.354;2022-07-05T08:41:41;94514.78;;;28.15;38.36
11692;BME280;33659;42.672;23.354;2022-07-05T08:44:09;94513.63;;;28.25;38.93
11692;BME280;33659;42.672;23.354;2022-07-05T08:46:39;94516.53;;;28.30;38.98
11692;BME280;33659;42.672;23.354;2022-07-05T08:49:06;94517.94;;;28.35;39.21
11692;BME280;33659;42.672;23.354;2022-07-05T08:51:35;94513.91;;;28.40;38.79
11692;BME280;33659;42.672;23.354;2022-07-05T08:54:03;94511.72;;;28.47;38.79
11692;BME280;33659;42.672;23.354;2022-07-05T08:56:30;94511.72;;;28.47;38.52
11692;BME280;33659;42.672;23.354;2022-07-05T08:58:58;94509.91;;;28.44;38.04
11692;BME280;33659;42.672;23.354;2022-07-05T09:01:24;94498.53;;;28.40;38.57
11692;BME280;33659;42.672;23.354;2022-07-05T09:03:53;94494.69;;;28.41;38.14
11692;BME280;33659;42.672;23.354;2022-07-05T09:06:25;94491.41;;;28.46;38.64
11692;BME280;33659;42.672;23.354;2022-07-05T09:08:54;94495.03;;;28.52;38.80
11692;BME280;33659;42.672;23.354;2022-07-05T09:11:24;94488.22;;;28.60;38.66
11692;BME280;33659;42.672;23.354;2022-07-05T09:13:51;94482.88;;;28.70;38.86
11692;BME280;33659;42.672;23.354;2022-07-05T09:16:18;94482.16;;;28.78;38.58
11692;BME280;33659;42.672;23.354;2022-07-05T09:18:47;94474.13;;;28.87;38.92
11692;BME280;33659;42.672;23.354;2022-07-05T09:21:17;94473.97;;;28.91;38.63
11692;BME280;33659;42.672;23.354;2022-07-05T09:23:45;94464.78;;;28.92;38.68
11692;BME280;33659;42.672;23.354;2022-07-05T09:26:12;94473.97;;;28.91;38.04
11692;BME280;33659;42.672;23.354;2022-07-05T09:28:53;94465.63;;;28.89;37.84
11692;BME280;33659;42.672;23.354;2022-07-05T09:31:26;94465.06;;;28.94;38.04
11692;BME280;33659;42.672;23.354;2022-07-05T09:33:53;94465.53;;;28.93;37.86
11692;BME280;33659;42.672;23.354;2022-07-05T09:36:21;94463.69;;;28.90;38.44
11692;BME280;33659;42.672;23.354;2022-07-05T09:38:49;94456.25;;;28.94;37.90
11692;BME280;33659;42.672;23.354;2022-07-05T09:41:16;94463.44;;;28.97;37.72
11692;BME280;33659;42.672;23.354;2022-07-05T09:43:43;94447.75;;;28.95;38.28
11692;BME280;33659;42.672;23.354;2022-07-05T09:46:10;94453.75;;;29.08;38.49
11692;BME280;33659;42.672;23.354;2022-07-05T09:48:51;94448.09;;;29.16;38.13
11692;BME280;33659;42.672;23.354;2022-07-05T09:51:18;94455.56;;;29.21;38.51
11692;BME280;33659;42.672;23.354;2022-07-05T09:53:47;94446.94;;;29.26;38.58
11692;BME280;33659;42.672;23.354;2022-07-05T09:56:14;94446.34;;;29.31;38.27
11692;BME280;33659;42.672;23.354;2022-07-05T09:58:41;94443.34;;;29.38;38.37
11692;BME280;33659;42.672;23.354;2022-07-05T10:01:25;94445.13;;;29.41;38.34
11692;BME280;33659;42.672;23.354;2022-07-05T10:03:52;94437.69;;;29.45;38.08
11692;BME280;33659;42.672;23.354;2022-07-05T10:06:19;94436.16;;;29.35;37.92
11692;BME280;33659;42.672;23.354;2022-07-05T10:08:48;94430.94;;;29.31;38.60
11692;BME280;33659;42.672;23.354;2022-07-05T10:11:15;94425.09;;;29.33;38.18
11692;BME280;33659;42.672;23.354;2022-07-05T10:13:44;94424.81;;;29.40;38.46
11692;BME280;33659;42.672;23.354;2022-07-05T10:16:11;94423.31;;;29.39;38.29
11692;BME280;33659;42.672;23.354;2022-07-05T10:18:39;94424.50;;;29.29;37.96
11692;BME280;33659;42.672;23.354;2022-07-05T10:21:12;94429.59;;;29.36;39.02
11692;BME280;33659;42.672;23.354;2022-07-05T10:23:42;94426.91;;;29.45;39.01
11692;BME280;33659;42.672;23.354;2022-07-05T10:26:11;94424.25;;;29.54;38.65
11692;BME280;33659;42.672;23.354;2022-07-05T10:28:40;94414.25;;;29.64;38.83
11692;BME280;33659;42.672;23.354;2022-07-05T10:31:07;94414.38;;;29.70;38.76
11692;BME280;33659;42.672;23.354;2022-07-05T10:33:35;94407.34;;;29.72;38.09
11692;BME280;33659;42.672;23.354;2022-07-05T10:36:03;94401.19;;;29.81;38.59
11692;BME280;33659;42.672;23.354;2022-07-05T10:38:30;94409.56;;;29.92;38.94
11692;BME280;33659;42.672;23.354;2022-07-05T10:40:59;94399.41;;;29.96;37.79
11692;BME280;33659;42.672;23.354;2022-07-05T10:43:29;94400.28;;;30.02;37.75
11692;BME280;33659;42.672;23.354;2022-07-05T10:45:56;94401.75;;;30.12;37.61
11692;BME280;33659;42.672;23.354;2022-07-05T10:48:24;94399.22;;;30.18;37.63
11692;BME280;33659;42.672;23.354;2022-07-05T10:50:52;94393.22;;;30.14;38.16
11692;BME280;33659;42.672;23.354;2022-07-05T10:53:21;94389.50;;;30.11;37.47
11692;BME280;33659;42.672;23.354;2022-07-05T10:55:50;94394.88;;;30.11;38.05
11692;BME280;33659;42.672;23.354;2022-07-05T10:58:24;94391.00;;;30.12;37.04
11692;BME280;33659;42.672;23.354;2022-07-05T11:04:28;94382.72;;;30.25;38.48
11692;BME280;33659;42.672;23.354;2022-07-05T11:07:00;94373.69;;;30.37;37.94
11692;BME280;33659;42.672;23.354;2022-07-05T11:09:27;94378.63;;;30.39;38.18
11692;BME280;33659;42.672;23.354;2022-07-05T11:12:06;94366.63;;;30.49;36.76
11692;BME280;33659;42.672;23.354;2022-07-05T11:14:37;94371.63;;;30.65;36.78
11692;BME280;33659;42.672;23.354;2022-07-05T11:17:23;94366.91;;;30.51;37.31
11692;BME280;33659;42.672;23.354;2022-07-05T11:20:06;94371.06;;;30.19;38.02
11692;BME280;33659;42.672;23.354;2022-07-05T11:22:33;94348.91;;;30.24;38.31
11692;BME280;33659;42.672;23.354;2022-07-05T11:25:01;94361.91;;;30.26;38.05
11692;BME280;33659;42.672;23.354;2022-07-05T11:27:28;94357.56;;;30.28;38.33
11692;BME280;33659;42.672;23.354;2022-07-05T11:29:57;94356.66;;;30.31;37.89
11692;BME280;33659;42.672;23.354;2022-07-05T11:32:35;94356.88;;;30.52;37.90
11692;BME280;33659;42.672;23.354;2022-07-05T11:35:14;94357.53;;;30.70;37.66
11692;BME280;33659;42.672;23.354;2022-07-05T11:37:58;94356.66;;;30.64;36.57
11692;BME280;33659;42.672;23.354;2022-07-05T11:40:28;94345.91;;;30.55;37.02
11692;BME280;33659;42.672;23.354;2022-07-05T11:42:55;94356.19;;;30.75;37.56
11692;BME280;33659;42.672;23.354;2022-07-05T11:45:22;94349.75;;;30.96;37.23
11692;BME280;33659;42.672;23.354;2022-07-05T11:47:50;94348.72;;;30.94;36.63
11692;BME280;33659;42.672;23.354;2022-07-05T11:50:25;94349.53;;;30.85;36.39
11692;BME280;33659;42.672;23.354;2022-07-05T11:52:52;94345.66;;;30.77;36.61
11692;BME280;33659;42.672;23.354;2022-07-05T11:55:19;94345.84;;;30.73;36.49
11692;BME280;33659;42.672;23.354;2022-07-05T11:57:49;94336.34;;;30.87;36.40
11692;BME280;33659;42.672;23.354;2022-07-05T12:00:29;94331.25;;;31.04;35.85
11692;BME280;33659;42.672;23.354;2022-07-05T12:02:56;94326.31;;;31.26;35.88
11692;BME280;33659;42.672;23.354;2022-07-05T12:05:29;94328.88;;;31.45;35.49
11692;BME280;33659;42.672;23.354;2022-07-05T12:07:56;94328.13;;;31.59;35.30
11692;BME280;33659;42.672;23.354;2022-07-05T12:10:23;94322.25;;;31.46;34.96
11692;BME280;33659;42.672;23.354;2022-07-05T12:13:07;94322.63;;;31.24;35.38
11692;BME280;33659;42.672;23.354;2022-07-05T12:15:35;94317.22;;;31.39;34.87
11692;BME280;33659;42.672;23.354;2022-07-05T12:18:04;94316.28;;;31.42;34.76
11692;BME280;33659;42.672;23.354;2022-07-05T12:20:34;94313.69;;;31.62;34.55
11692;BME280;33659;42.672;23.354;2022-07-05T12:23:01;94310.03;;;31.36;34.84
11692;BME280;33659;42.672;23.354;2022-07-05T12:25:29;94312.09;;;31.41;35.30
11692;BME280;33659;42.672;23.354;2022-07-05T12:27:58;94302.63;;;31.60;35.61
11692;BME280;33659;42.672;23.354;2022-07-05T12:30:27;94304.78;;;31.86;34.52
11692;BME280;33659;42.672;23.354;2022-07-05T12:32:57;94300.66;;;32.05;35.18
11692;BME280;33659;42.672;23.354;2022-07-05T12:35:27;94307.47;;;32.15;34.64
11692;BME280;33659;42.672;23.354;2022-07-05T12:37:56;94303.28;;;31.70;34.83
11692;BME280;33659;42.672;23.354;2022-07-05T12:40:23;94296.75;;;31.62;35.54
11692;BME280;33659;42.672;23.354;2022-07-05T12:43:01;94305.69;;;31.68;35.59
11692;BME280;33659;42.672;23.354;2022-07-05T12:45:28;94296.22;;;31.87;35.36
11692;BME280;33659;42.672;23.354;2022-07-05T12:47:56;94285.84;;;32.15;35.30
11692;BME280;33659;42.672;23.354;2022-07-05T12:50:24;94276.94;;;32.29;35.14
11692;BME280;33659;42.672;23.354;2022-07-05T12:52:58;94287.25;;;32.46;34.61
11692;BME280;33659;42.672;23.354;2022-07-05T12:55:34;94283.78;;;32.60;34.59
11692;BME280;33659;42.672;23.354;2022-07-05T12:58:18;94283.28;;;32.41;34.42